sensor_id;sensor_type;location;lat;lon;timestamp;temperature;humidity
40758;DHT22;26462;47.384;19.218;2024-02-04T00:01:12;7.60;99.90
40758;DHT22;26462;47.384;19.218;2024-02-04T00:03:43;8.10;99.90
40758;DHT22;26462;47.384;19.218;2024-02-04T00:06:13;8.10;99.90
40758;DHT22;26462;47.384;19.218;2024-02-04T00:08:43;8.10;99.90
40758;DHT22;26462;47.384;19.218;2024-02-04T00:11:14;8.30;99.90
40758;DHT22;26462;47.384;19.218;2024-02-04T00:14:00;9.40;99.90
40758;DHT22;26462;47.384;19.218;2024-02-04T00:16:28;8.50;99.90
40758;DHT22;26462;47.384;19.218;2024-02-04T00:18:59;8.70;99.90
40758;DHT22;26462;47.384;19.218;2024-02-04T00:21:32;9.00;99.90
40758;DHT22;26462;47.384;19.218;2024-02-04T00:24:08;9.10;99.90
40758;DHT22;26462;47.384;19.218;2024-02-04T00:26:38;9.10;99.90
40758;DHT22;26462;47.384;19.218;2024-02-04T00:29:09;9.00;99.90
40758;DHT22;26462;47.384;19.218;2024-02-04T00:31:43;9.70;99.90
40758;DHT22;26462;47.384;19.218;2024-02-04T00:34:11;9.00;99.90
40758;DHT22;26462;47.384;19.218;2024-02-04T00:36:43;9.00;99.90
40758;DHT22;26462;47.384;19.218;2024-02-04T00:39:17;9.20;99.90
40758;DHT22;26462;47.384;19.218;2024-02-04T00:41:47;9.20;99.90
40758;DHT22;26462;47.384;19.218;2024-02-04T00:44:17;9.00;99.90
40758;DHT22;26462;47.384;19.218;2024-02-04T00:46:55;8.80;99.90
40758;DHT22;26462;47.384;19.218;2024-02-04T00:49:24;9.00;99.90
40758;DHT22;26462;47.384;19.218;2024-02-04T00:51:55;8.90;99.90
40758;DHT22;26462;47.384;19.218;2024-02-04T00:54:28;8.80;99.90
40758;DHT22;26462;47.384;19.218;2024-02-04T00:57:00;9.00;99.90
40758;DHT22;26462;47.384;19.218;2024-02-04T00:59:30;9.00;99.90
40758;DHT22;26462;47.384;19.218;2024-02-04T01:02:02;8.90;99.90
40758;DHT22;26462;47.384;19.218;2024-02-04T01:04:31;9.00;99.90
40758;DHT22;26462;47.384;19.218;2024-02-04T01:07:06;9.40;99.90
40758;DHT22;26462;47.384;19.218;2024-02-04T01:09:37;8.90;99.90
40758;DHT22;26462;47.384;19.218;2024-02-04T01:12:34;8.90;99.90
40758;DHT22;26462;47.384;19.218;2024-02-04T01:15:10;8.90;99.90
40758;DHT22;26462;47.384;19.218;2024-02-04T01:17:40;8.90;99.90
40758;DHT22;26462;47.384;19.218;2024-02-04T01:20:11;9.00;99.90
40758;DHT22;26462;47.384;19.218;2024-02-04T01:26:49;8.90;99.90
40758;DHT22;26462;47.384;19.218;2024-02-04T01:29:17;8.90;99.90
40758;DHT22;26462;47.384;19.218;2024-02-04T01:31:47;8.70;99.90
40758;DHT22;26462;47.384;19.218;2024-02-04T01:34:15;8.60;99.90
40758;DHT22;26462;47.384;19.218;2024-02-04T01:36:44;8.50;99.90
40758;DHT22;26462;47.384;19.218;2024-02-04T01:39:15;8.50;99.90
40758;DHT22;26462;47.384;19.218;2024-02-04T01:41:44;8.50;99.90
40758;DHT22;26462;47.384;19.218;2024-02-04T01:44:14;8.60;99.90
40758;DHT22;26462;47.384;19.218;2024-02-04T01:46:44;8.40;99.90
40758;DHT22;26462;47.384;19.218;2024-02-04T01:49:12;8.40;99.90
40758;DHT22;26462;47.384;19.218;2024-02-04T01:51:41;8.40;99.90
40758;DHT22;26462;47.384;19.218;2024-02-04T01:54:10;8.30;99.90
40758;DHT22;26462;47.384;19.218;2024-02-04T01:56:37;8.40;99.90
40758;DHT22;26462;47.384;19.218;2024-02-04T01:59:06;8.40;99.90
40758;DHT22;26462;47.384;19.218;2024-02-04T02:01:36;8.30;99.90
40758;DHT22;26462;47.384;19.218;2024-02-04T02:04:05;8.40;99.90
40758;DHT22;26462;47.384;19.218;2024-02-04T02:06:34;8.30;99.90
40758;DHT22;26462;47.384;19.218;2024-02-04T02:09:09;8.30;99.90
40758;DHT22;26462;47.384;19.218;2024-02-04T02:11:42;8.30;99.90
40758;DHT22;26462;47.384;19.218;2024-02-04T02:14:13;8.40;99.90
40758;DHT22;26462;47.384;19.218;2024-02-04T02:16:45;8.40;99.90
40758;DHT22;26462;47.384;19.218;2024-02-04T02:19:30;8.40;99.90
40758;DHT22;26462;47.384;19.218;2024-02-04T02:22:04;8.70;99.90
40758;DHT22;26462;47.384;19.218;2024-02-04T02:24:38;8.50;99.90
40758;DHT22;26462;47.384;19.218;2024-02-04T02:27:07;8.50;99.90
40758;DHT22;26462;47.384;19.218;2024-02-04T02:29:37;8.50;99.90
40758;DHT22;26462;47.384;19.218;2024-02-04T02:32:06;8.50;99.90
40758;DHT22;26462;47.384;19.218;2024-02-04T02:34:35;8.50;99.90
40758;DHT22;26462;47.384;19.218;2024-02-04T02:37:12;8.50;99.90
40758;DHT22;26462;47.384;19.218;2024-02-04T02:39:53;8.40;99.90
40758;DHT22;26462;47.384;19.218;2024-02-04T02:42:26;8.30;99.90
40758;DHT22;26462;47.384;19.218;2024-02-04T02:45:03;8.20;99.90
40758;DHT22;26462;47.384;19.218;2024-02-04T02:47:32;8.20;99.90
40758;DHT22;26462;47.384;19.218;2024-02-04T02:50:05;8.20;99.90
40758;DHT22;26462;47.384;19.218;2024-02-04T02:52:34;8.30;99.90
40758;DHT22;26462;47.384;19.218;2024-02-04T02:55:06;8.20;99.90
40758;DHT22;26462;47.384;19.218;2024-02-04T02:57:34;8.20;99.90
40758;DHT22;26462;47.384;19.218;2024-02-04T03:00:07;8.30;99.90
40758;DHT22;26462;47.384;19.218;2024-02-04T03:02:36;8.30;99.90
40758;DHT22;26462;47.384;19.218;2024-02-04T03:05:05;8.20;99.90
40758;DHT22;26462;47.384;19.218;2024-02-04T03:07:35;8.20;99.90
40758;DHT22;26462;47.384;19.218;2024-02-04T03:10:12;8.10;99.90
40758;DHT22;26462;47.384;19.218;2024-02-04T03:12:41;8.10;99.90
40758;DHT22;26462;47.384;19.218;2024-02-04T03:15:09;7.90;99.90
40758;DHT22;26462;47.384;19.218;2024-02-04T03:17:38;8.10;99.90
40758;DHT22;26462;47.384;19.218;2024-02-04T03:20:08;8.10;99.90
40758;DHT22;26462;47.384;19.218;2024-02-04T03:22:37;8.00;99.90
40758;DHT22;26462;47.384;19.218;2024-02-04T03:25:08;8.10;99.90
40758;DHT22;26462;47.384;19.218;2024-02-04T03:27:43;8.00;99.90
40758;DHT22;26462;47.384;19.218;2024-02-04T03:30:12;8.10;99.90
40758;DHT22;26462;47.384;19.218;2024-02-04T03:32:40;8.20;99.90
40758;DHT22;26462;47.384;19.218;2024-02-04T03:35:10;8.10;99.90
40758;DHT22;26462;47.384;19.218;2024-02-04T03:37:40;8.00;99.90
40758;DHT22;26462;47.384;19.218;2024-02-04T03:40:09;8.10;99.90
40758;DHT22;26462;47.384;19.218;2024-02-04T03:42:49;8.30;99.90
40758;DHT22;26462;47.384;19.218;2024-02-04T03:45:23;8.30;99.90
40758;DHT22;26462;47.384;19.218;2024-02-04T03:47:51;8.40;99.90
40758;DHT22;26462;47.384;19.218;2024-02-04T03:50:20;8.40;99.90
40758;DHT22;26462;47.384;19.218;2024-02-04T03:52:49;8.30;99.90
40758;DHT22;26462;47.384;19.218;2024-02-04T03:55:17;8.30;99.90
40758;DHT22;26462;47.384;19.218;2024-02-04T03:57:54;8.40;99.90
40758;DHT22;26462;47.384;19.218;2024-02-04T04:00:35;8.30;99.90
40758;DHT22;26462;47.384;19.218;2024-02-04T04:03:04;8.40;99.90
40758;DHT22;26462;47.384;19.218;2024-02-04T04:05:33;8.40;99.90
40758;DHT22;26462;47.384;19.218;2024-02-04T04:08:06;8.40;99.90
40758;DHT22;26462;47.384;19.218;2024-02-04T04:10:34;8.40;99.90
40758;DHT22;26462;47.384;19.218;2024-02-04T04:13:07;8.40;99.90
40758;DHT22;26462;47.384;19.218;2024-02-04T04:15:36;8.50;99.90
40758;DHT22;26462;47.384;19.218;2024-02-04T04:18:09;8.60;99.90
40758;DHT22;26462;47.384;19.218;2024-02-04T04:20:40;8.60;99.90
40758;DHT22;26462;47.384;19.218;2024-02-04T04:23:14;8.60;99.90
40758;DHT22;26462;47.384;19.218;2024-02-04T04:25:43;8.60;99.90
40758;DHT22;26462;47.384;19.218;2024-02-04T04:28:13;8.50;99.90
40758;DHT22;26462;47.384;19.218;2024-02-04T04:30:43;8.50;99.90
40758;DHT22;26462;47.384;19.218;2024-02-04T04:33:12;8.50;99.90
40758;DHT22;26462;47.384;19.218;2024-02-04T04:35:41;8.50;99.90
40758;DHT22;26462;47.384;19.218;2024-02-04T04:38:09;8.50;99.90
40758;DHT22;26462;47.384;19.218;2024-02-04T04:40:41;8.50;99.90
40758;DHT22;26462;47.384;19.218;2024-02-04T04:43:10;8.40;99.90
40758;DHT22;26462;47.384;19.218;2024-02-04T04:45:40;8.40;99.90
40758;DHT22;26462;47.384;19.218;2024-02-04T04:48:08;8.40;99.90
40758;DHT22;26462;47.384;19.218;2024-02-04T04:50:37;8.50;99.90
40758;DHT22;26462;47.384;19.218;2024-02-04T04:53:05;8.40;99.90
40758;DHT22;26462;47.384;19.218;2024-02-04T04:55:34;8.50;99.90
40758;DHT22;26462;47.384;19.218;2024-02-04T04:58:03;8.40;99.90
40758;DHT22;26462;47.384;19.218;2024-02-04T05:00:36;8.40;99.90
40758;DHT22;26462;47.384;19.218;2024-02-04T05:03:10;8.40;99.90
40758;DHT22;26462;47.384;19.218;2024-02-04T05:05:38;8.30;99.90
40758;DHT22;26462;47.384;19.218;2024-02-04T05:08:08;8.20;99.90
40758;DHT22;26462;47.384;19.218;2024-02-04T05:10:39;8.10;99.90
40758;DHT22;26462;47.384;19.218;2024-02-04T05:13:08;8.10;99.90
40758;DHT22;26462;47.384;19.218;2024-02-04T05:15:37;7.90;99.90
40758;DHT22;26462;47.384;19.218;2024-02-04T05:18:05;8.00;99.90
40758;DHT22;26462;47.384;19.218;2024-02-04T05:20:39;8.00;99.90
40758;DHT22;26462;47.384;19.218;2024-02-04T05:23:11;8.00;99.90
40758;DHT22;26462;47.384;19.218;2024-02-04T05:25:39;8.00;99.90
40758;DHT22;26462;47.384;19.218;2024-02-04T05:28:09;7.40;99.90
40758;DHT22;26462;47.384;19.218;2024-02-04T05:30:38;7.90;99.90
40758;DHT22;26462;47.384;19.218;2024-02-04T05:33:06;7.90;99.90
40758;DHT22;26462;47.384;19.218;2024-02-04T05:35:36;7.90;99.90
40758;DHT22;26462;47.384;19.218;2024-02-04T05:38:05;7.90;99.90
40758;DHT22;26462;47.384;19.218;2024-02-04T05:40:34;7.90;99.90
40758;DHT22;26462;47.384;19.218;2024-02-04T05:43:03;7.90;99.90
40758;DHT22;26462;47.384;19.218;2024-02-04T05:45:39;7.90;99.90
40758;DHT22;26462;47.384;19.218;2024-02-04T05:48:09;7.80;99.90
40758;DHT22;26462;47.384;19.218;2024-02-04T05:50:39;7.90;99.90
40758;DHT22;26462;47.384;19.218;2024-02-04T05:53:09;7.90;99.90
40758;DHT22;26462;47.384;19.218;2024-02-04T05:55:38;7.80;99.90
40758;DHT22;26462;47.384;19.218;2024-02-04T05:58:09;7.80;99.90
40758;DHT22;26462;47.384;19.218;2024-02-04T06:00:38;7.20;99.90
40758;DHT22;26462;47.384;19.218;2024-02-04T06:03:06;7.70;99.90
40758;DHT22;26462;47.384;19.218;2024-02-04T06:05:37;7.60;99.90
40758;DHT22;26462;47.384;19.218;2024-02-04T06:08:07;7.10;99.90
40758;DHT22;26462;47.384;19.218;2024-02-04T06:10:35;7.70;99.90
40758;DHT22;26462;47.384;19.218;2024-02-04T06:13:05;7.60;99.90
40758;DHT22;26462;47.384;19.218;2024-02-04T06:15:33;7.50;99.90
40758;DHT22;26462;47.384;19.218;2024-02-04T06:18:04;7.50;99.90
40758;DHT22;26462;47.384;19.218;2024-02-04T06:20:32;7.50;99.90
40758;DHT22;26462;47.384;19.218;2024-02-04T06:23:01;7.40;99.90
40758;DHT22;26462;47.384;19.218;2024-02-04T06:25:31;7.40;99.90
40758;DHT22;26462;47.384;19.218;2024-02-04T06:28:00;7.40;99.90
40758;DHT22;26462;47.384;19.218;2024-02-04T06:30:29;7.70;99.90
40758;DHT22;26462;47.384;19.218;2024-02-04T06:32:58;7.30;99.90
40758;DHT22;26462;47.384;19.218;2024-02-04T06:35:27;7.70;99.90
40758;DHT22;26462;47.384;19.218;2024-02-04T06:37:55;7.30;99.90
40758;DHT22;26462;47.384;19.218;2024-02-04T06:40:27;7.30;99.90
40758;DHT22;26462;47.384;19.218;2024-02-04T06:42:57;7.30;99.90
40758;DHT22;26462;47.384;19.218;2024-02-04T06:45:26;7.30;99.90
40758;DHT22;26462;47.384;19.218;2024-02-04T06:47:55;7.50;99.90
40758;DHT22;26462;47.384;19.218;2024-02-04T06:50:23;7.50;99.90
40758;DHT22;26462;47.384;19.218;2024-02-04T06:52:52;7.50;99.90
40758;DHT22;26462;47.384;19.218;2024-02-04T06:55:21;7.60;99.90
40758;DHT22;26462;47.384;19.218;2024-02-04T06:57:50;7.60;99.90
40758;DHT22;26462;47.384;19.218;2024-02-04T07:00:24;8.50;99.90
40758;DHT22;26462;47.384;19.218;2024-02-04T07:03:29;7.70;99.90
40758;DHT22;26462;47.384;19.218;2024-02-04T07:10:43;7.90;99.90
40758;DHT22;26462;47.384;19.218;2024-02-04T07:13:55;8.10;99.90
40758;DHT22;26462;47.384;19.218;2024-02-04T07:16:59;8.00;99.90
40758;DHT22;26462;47.384;19.218;2024-02-04T07:20:36;8.10;99.90
40758;DHT22;26462;47.384;19.218;2024-02-04T07:23:35;8.10;99.90
40758;DHT22;26462;47.384;19.218;2024-02-04T07:27:19;8.00;99.90
40758;DHT22;26462;47.384;19.218;2024-02-04T07:30:07;8.10;99.90
40758;DHT22;26462;47.384;19.218;2024-02-04T07:32:58;8.20;99.90
40758;DHT22;26462;47.384;19.218;2024-02-04T07:35:33;8.20;99.90
40758;DHT22;26462;47.384;19.218;2024-02-04T07:38:06;7.90;99.90
40758;DHT22;26462;47.384;19.218;2024-02-04T07:49:21;8.50;99.90
40758;DHT22;26462;47.384;19.218;2024-02-04T07:51:53;8.70;99.90
40758;DHT22;26462;47.384;19.218;2024-02-04T07:54:53;8.80;99.90
40758;DHT22;26462;47.384;19.218;2024-02-04T07:58:13;8.70;99.90
40758;DHT22;26462;47.384;19.218;2024-02-04T08:00:49;8.90;99.90
40758;DHT22;26462;47.384;19.218;2024-02-04T08:03:32;8.90;99.90
40758;DHT22;26462;47.384;19.218;2024-02-04T08:06:06;9.10;99.90
40758;DHT22;26462;47.384;19.218;2024-02-04T08:08:42;8.80;99.90
40758;DHT22;26462;47.384;19.218;2024-02-04T08:11:25;9.00;99.90
40758;DHT22;26462;47.384;19.218;2024-02-04T08:13:59;9.20;99.90
40758;DHT22;26462;47.384;19.218;2024-02-04T08:16:45;9.30;99.90
40758;DHT22;26462;47.384;19.218;2024-02-04T08:19:39;9.20;99.90
40758;DHT22;26462;47.384;19.218;2024-02-04T08:22:13;9.30;99.90
40758;DHT22;26462;47.384;19.218;2024-02-04T08:24:45;9.30;99.90
40758;DHT22;26462;47.384;19.218;2024-02-04T08:27:17;9.40;99.90
40758;DHT22;26462;47.384;19.218;2024-02-04T08:29:45;9.40;99.90
40758;DHT22;26462;47.384;19.218;2024-02-04T08:32:15;9.60;99.90
40758;DHT22;26462;47.384;19.218;2024-02-04T08:34:49;9.40;99.90
40758;DHT22;26462;47.384;19.218;2024-02-04T08:37:25;9.60;99.90
40758;DHT22;26462;47.384;19.218;2024-02-04T08:40:00;9.50;99.90
40758;DHT22;26462;47.384;19.218;2024-02-04T08:42:31;9.70;99.90
40758;DHT22;26462;47.384;19.218;2024-02-04T08:45:01;9.70;99.90
40758;DHT22;26462;47.384;19.218;2024-02-04T08:47:31;9.70;99.90
40758;DHT22;26462;47.384;19.218;2024-02-04T08:50:02;9.70;99.90
40758;DHT22;26462;47.384;19.218;2024-02-04T08:52:34;9.80;99.90
40758;DHT22;26462;47.384;19.218;2024-02-04T08:55:06;9.70;99.90
40758;DHT22;26462;47.384;19.218;2024-02-04T08:57:36;9.80;99.90
40758;DHT22;26462;47.384;19.218;2024-02-04T09:00:08;9.70;99.90
40758;DHT22;26462;47.384;19.218;2024-02-04T09:02:42;9.70;99.90
40758;DHT22;26462;47.384;19.218;2024-02-04T09:05:19;9.70;99.90
40758;DHT22;26462;47.384;19.218;2024-02-04T09:08:00;9.70;99.90
40758;DHT22;26462;47.384;19.218;2024-02-04T09:10:33;9.70;99.90
40758;DHT22;26462;47.384;19.218;2024-02-04T09:13:02;9.80;99.90
40758;DHT22;26462;47.384;19.218;2024-02-04T09:15:31;10.70;99.90
40758;DHT22;26462;47.384;19.218;2024-02-04T09:18:00;10.00;99.90
40758;DHT22;26462;47.384;19.218;2024-02-04T09:20:29;10.00;99.90
40758;DHT22;26462;47.384;19.218;2024-02-04T09:22:59;10.00;99.90
40758;DHT22;26462;47.384;19.218;2024-02-04T09:25:34;10.10;99.90
40758;DHT22;26462;47.384;19.218;2024-02-04T09:28:07;10.40;99.90
40758;DHT22;26462;47.384;19.218;2024-02-04T09:30:37;10.20;99.90
40758;DHT22;26462;47.384;19.218;2024-02-04T09:33:08;10.10;99.90
40758;DHT22;26462;47.384;19.218;2024-02-04T09:36:08;10.10;99.90
40758;DHT22;26462;47.384;19.218;2024-02-04T09:38:49;10.10;99.90
40758;DHT22;26462;47.384;19.218;2024-02-04T09:41:20;10.20;99.90
40758;DHT22;26462;47.384;19.218;2024-02-04T09:43:53;10.30;99.90
40758;DHT22;26462;47.384;19.218;2024-02-04T09:46:30;10.50;99.90
40758;DHT22;26462;47.384;19.218;2024-02-04T09:49:11;9.80;99.90
40758;DHT22;26462;47.384;19.218;2024-02-04T09:52:06;10.70;99.90
40758;DHT22;26462;47.384;19.218;2024-02-04T09:54:46;10.80;99.90
40758;DHT22;26462;47.384;19.218;2024-02-04T09:57:49;11.00;99.90
40758;DHT22;26462;47.384;19.218;2024-02-04T10:00:19;10.90;99.90
40758;DHT22;26462;47.384;19.218;2024-02-04T10:03:00;10.90;99.90
40758;DHT22;26462;47.384;19.218;2024-02-04T10:05:31;9.80;99.90
40758;DHT22;26462;47.384;19.218;2024-02-04T10:08:10;11.00;99.90
40758;DHT22;26462;47.384;19.218;2024-02-04T10:10:52;10.70;99.90
40758;DHT22;26462;47.384;19.218;2024-02-04T10:13:28;10.90;99.90
40758;DHT22;26462;47.384;19.218;2024-02-04T10:16:19;10.90;99.90
40758;DHT22;26462;47.384;19.218;2024-02-04T10:18:50;11.00;99.90
40758;DHT22;26462;47.384;19.218;2024-02-04T10:21:29;11.20;99.90
40758;DHT22;26462;47.384;19.218;2024-02-04T10:24:00;11.40;99.90
40758;DHT22;26462;47.384;19.218;2024-02-04T10:27:35;11.60;99.90
40758;DHT22;26462;47.384;19.218;2024-02-04T10:30:56;11.80;99.90
40758;DHT22;26462;47.384;19.218;2024-02-04T10:33:32;12.10;99.90
40758;DHT22;26462;47.384;19.218;2024-02-04T10:40:50;12.00;99.90
40758;DHT22;26462;47.384;19.218;2024-02-04T10:44:04;11.80;99.90
40758;DHT22;26462;47.384;19.218;2024-02-04T10:47:10;11.90;99.90
40758;DHT22;26462;47.384;19.218;2024-02-04T10:49:50;11.80;99.90
40758;DHT22;26462;47.384;19.218;2024-02-04T10:52:30;11.80;99.90
40758;DHT22;26462;47.384;19.218;2024-02-04T10:56:19;11.90;99.90
40758;DHT22;26462;47.384;19.218;2024-02-04T10:59:20;11.90;99.90
40758;DHT22;26462;47.384;19.218;2024-02-04T11:02:07;11.80;99.90
40758;DHT22;26462;47.384;19.218;2024-02-04T11:05:05;12.90;99.90
40758;DHT22;26462;47.384;19.218;2024-02-04T11:07:38;11.90;99.90
40758;DHT22;26462;47.384;19.218;2024-02-04T11:10:11;11.40;99.90
40758;DHT22;26462;47.384;19.218;2024-02-04T11:13:08;12.10;99.90
40758;DHT22;26462;47.384;19.218;2024-02-04T11:15:44;12.30;99.90
40758;DHT22;26462;47.384;19.218;2024-02-04T11:18:32;12.40;99.90
40758;DHT22;26462;47.384;19.218;2024-02-04T11:21:37;12.30;99.90
40758;DHT22;26462;47.384;19.218;2024-02-04T11:24:25;12.30;99.90
40758;DHT22;26462;47.384;19.218;2024-02-04T11:26:57;12.40;99.90
40758;DHT22;26462;47.384;19.218;2024-02-04T11:29:27;12.50;99.90
40758;DHT22;26462;47.384;19.218;2024-02-04T11:32:01;12.70;99.90
40758;DHT22;26462;47.384;19.218;2024-02-04T11:34:35;12.90;99.90
40758;DHT22;26462;47.384;19.218;2024-02-04T11:37:18;12.80;99.90
40758;DHT22;26462;47.384;19.218;2024-02-04T11:39:49;12.80;99.90
40758;DHT22;26462;47.384;19.218;2024-02-04T11:42:19;12.80;99.90
40758;DHT22;26462;47.384;19.218;2024-02-04T11:44:49;13.60;99.90
40758;DHT22;26462;47.384;19.218;2024-02-04T11:47:28;12.70;99.90
40758;DHT22;26462;47.384;19.218;2024-02-04T11:49:58;12.80;99.90
40758;DHT22;26462;47.384;19.218;2024-02-04T11:52:34;12.90;99.90
40758;DHT22;26462;47.384;19.218;2024-02-04T11:55:18;12.80;99.90
40758;DHT22;26462;47.384;19.218;2024-02-04T11:58:31;12.80;99.90
40758;DHT22;26462;47.384;19.218;2024-02-04T12:01:24;13.50;99.90
40758;DHT22;26462;47.384;19.218;2024-02-04T12:08:19;11.80;99.00
40758;DHT22;26462;47.384;19.218;2024-02-04T12:11:24;13.00;98.70
40758;DHT22;26462;47.384;19.218;2024-02-04T12:14:51;13.90;98.60
40758;DHT22;26462;47.384;19.218;2024-02-04T12:22:09;13.10;98.10
40758;DHT22;26462;47.384;19.218;2024-02-04T12:24:42;13.20;97.70
40758;DHT22;26462;47.384;19.218;2024-02-04T12:31:34;13.10;97.30
40758;DHT22;26462;47.384;19.218;2024-02-04T12:34:08;13.40;97.60
40758;DHT22;26462;47.384;19.218;2024-02-04T12:36:39;13.40;97.30
40758;DHT22;26462;47.384;19.218;2024-02-04T12:39:11;13.50;97.40
40758;DHT22;26462;47.384;19.218;2024-02-04T12:44:31;13.20;97.60
40758;DHT22;26462;47.384;19.218;2024-02-04T12:47:00;13.00;97.20
40758;DHT22;26462;47.384;19.218;2024-02-04T12:49:29;12.90;97.40
40758;DHT22;26462;47.384;19.218;2024-02-04T12:52:04;12.80;97.70
40758;DHT22;26462;47.384;19.218;2024-02-04T12:54:41;12.70;98.10
40758;DHT22;26462;47.384;19.218;2024-02-04T12:57:21;12.70;98.80
40758;DHT22;26462;47.384;19.218;2024-02-04T13:00:06;12.60;99.70
40758;DHT22;26462;47.384;19.218;2024-02-04T13:02:49;12.50;99.90
40758;DHT22;26462;47.384;19.218;2024-02-04T13:06:07;12.50;99.90
40758;DHT22;26462;47.384;19.218;2024-02-04T13:09:14;12.60;99.90
40758;DHT22;26462;47.384;19.218;2024-02-04T13:11:44;12.50;99.90
40758;DHT22;26462;47.384;19.218;2024-02-04T13:14:47;12.60;99.90
40758;DHT22;26462;47.384;19.218;2024-02-04T13:17:20;12.60;99.90
40758;DHT22;26462;47.384;19.218;2024-02-04T13:20:35;12.60;99.90
40758;DHT22;26462;47.384;19.218;2024-02-04T13:23:07;12.60;99.90
40758;DHT22;26462;47.384;19.218;2024-02-04T13:30:37;12.50;99.90
40758;DHT22;26462;47.384;19.218;2024-02-04T13:33:49;12.50;99.90
40758;DHT22;26462;47.384;19.218;2024-02-04T13:36:36;12.40;99.90
40758;DHT22;26462;47.384;19.218;2024-02-04T13:39:58;12.30;99.90
40758;DHT22;26462;47.384;19.218;2024-02-04T13:42:53;11.20;99.90
40758;DHT22;26462;47.384;19.218;2024-02-04T13:46:37;12.20;99.90
40758;DHT22;26462;47.384;19.218;2024-02-04T13:49:42;12.30;99.90
40758;DHT22;26462;47.384;19.218;2024-02-04T13:52:38;12.30;99.90
40758;DHT22;26462;47.384;19.218;2024-02-04T13:55:51;12.30;99.90
40758;DHT22;26462;47.384;19.218;2024-02-04T14:03:08;12.30;99.90
40758;DHT22;26462;47.384;19.218;2024-02-04T14:13:57;12.00;99.90
40758;DHT22;26462;47.384;19.218;2024-02-04T14:17:37;12.00;99.90
40758;DHT22;26462;47.384;19.218;2024-02-04T14:21:19;11.90;99.90
40758;DHT22;26462;47.384;19.218;2024-02-04T14:24:39;11.90;99.90
40758;DHT22;26462;47.384;19.218;2024-02-04T14:27:32;11.90;99.90
40758;DHT22;26462;47.384;19.218;2024-02-04T14:30:09;12.00;99.90
40758;DHT22;26462;47.384;19.218;2024-02-04T14:33:18;12.00;99.90
40758;DHT22;26462;47.384;19.218;2024-02-04T14:40:19;12.00;99.90
40758;DHT22;26462;47.384;19.218;2024-02-04T14:43:23;11.90;99.90
40758;DHT22;26462;47.384;19.218;2024-02-04T14:46:16;11.90;99.90
40758;DHT22;26462;47.384;19.218;2024-02-04T14:49:43;12.00;99.90
40758;DHT22;26462;47.384;19.218;2024-02-04T14:52:21;11.90;99.90
40758;DHT22;26462;47.384;19.218;2024-02-04T14:55:11;11.90;99.90
40758;DHT22;26462;47.384;19.218;2024-02-04T14:57:51;12.00;99.90
40758;DHT22;26462;47.384;19.218;2024-02-04T15:00:51;11.90;99.90
40758;DHT22;26462;47.384;19.218;2024-02-04T15:03:27;11.90;99.90
40758;DHT22;26462;47.384;19.218;2024-02-04T15:05:59;11.90;99.90
40758;DHT22;26462;47.384;19.218;2024-02-04T15:08:52;12.00;99.90
40758;DHT22;26462;47.384;19.218;2024-02-04T15:11:54;12.00;99.90
40758;DHT22;26462;47.384;19.218;2024-02-04T15:15:13;12.00;99.90
40758;DHT22;26462;47.384;19.218;2024-02-04T15:18:02;11.80;99.90
40758;DHT22;26462;47.384;19.218;2024-02-04T15:20:39;11.90;99.90
40758;DHT22;26462;47.384;19.218;2024-02-04T15:23:24;11.80;99.90
40758;DHT22;26462;47.384;19.218;2024-02-04T15:26:01;11.70;99.90
40758;DHT22;26462;47.384;19.218;2024-02-04T15:28:41;11.50;99.90
40758;DHT22;26462;47.384;19.218;2024-02-04T15:31:25;11.70;99.90
40758;DHT22;26462;47.384;19.218;2024-02-04T15:34:19;11.40;99.90
40758;DHT22;26462;47.384;19.218;2024-02-04T15:37:13;10.20;99.90
40758;DHT22;26462;47.384;19.218;2024-02-04T15:39:47;11.50;99.90
40758;DHT22;26462;47.384;19.218;2024-02-04T15:47:16;11.30;99.90
40758;DHT22;26462;47.384;19.218;2024-02-04T15:50:09;11.10;99.90
40758;DHT22;26462;47.384;19.218;2024-02-04T15:52:55;11.10;99.90
40758;DHT22;26462;47.384;19.218;2024-02-04T15:55:40;11.10;99.90
40758;DHT22;26462;47.384;19.218;2024-02-04T15:58:18;11.10;99.90
40758;DHT22;26462;47.384;19.218;2024-02-04T16:01:00;11.10;99.90
40758;DHT22;26462;47.384;19.218;2024-02-04T16:03:57;11.40;99.90
40758;DHT22;26462;47.384;19.218;2024-02-04T16:06:28;10.60;99.90
40758;DHT22;26462;47.384;19.218;2024-02-04T16:08:57;10.80;99.90
40758;DHT22;26462;47.384;19.218;2024-02-04T16:11:28;10.80;99.90
40758;DHT22;26462;47.384;19.218;2024-02-04T16:14:02;10.80;99.90
40758;DHT22;26462;47.384;19.218;2024-02-04T16:16:35;10.80;99.90
40758;DHT22;26462;47.384;19.218;2024-02-04T16:19:05;10.80;99.90
40758;DHT22;26462;47.384;19.218;2024-02-04T16:21:38;10.80;99.90
40758;DHT22;26462;47.384;19.218;2024-02-04T16:24:08;10.80;99.90
40758;DHT22;26462;47.384;19.218;2024-02-04T16:26:36;11.00;99.90
40758;DHT22;26462;47.384;19.218;2024-02-04T16:29:09;10.80;99.90
40758;DHT22;26462;47.384;19.218;2024-02-04T16:31:38;11.10;99.90
40758;DHT22;26462;47.384;19.218;2024-02-04T16:34:07;10.70;99.90
40758;DHT22;26462;47.384;19.218;2024-02-04T16:36:41;10.80;99.90
40758;DHT22;26462;47.384;19.218;2024-02-04T16:39:10;10.90;99.90
40758;DHT22;26462;47.384;19.218;2024-02-04T16:41:43;10.80;99.90
40758;DHT22;26462;47.384;19.218;2024-02-04T16:44:20;10.80;99.90
40758;DHT22;26462;47.384;19.218;2024-02-04T16:46:49;11.00;99.90
40758;DHT22;26462;47.384;19.218;2024-02-04T16:49:18;10.90;99.90
40758;DHT22;26462;47.384;19.218;2024-02-04T16:51:52;10.90;99.90
40758;DHT22;26462;47.384;19.218;2024-02-04T16:54:20;10.80;99.90
40758;DHT22;26462;47.384;19.218;2024-02-04T16:56:54;10.80;99.90
40758;DHT22;26462;47.384;19.218;2024-02-04T16:59:39;10.80;99.90
40758;DHT22;26462;47.384;19.218;2024-02-04T17:02:12;10.80;99.90
40758;DHT22;26462;47.384;19.218;2024-02-04T17:05:03;10.70;99.90
40758;DHT22;26462;47.384;19.218;2024-02-04T17:07:35;10.60;99.90
40758;DHT22;26462;47.384;19.218;2024-02-04T17:10:09;10.70;99.90
40758;DHT22;26462;47.384;19.218;2024-02-04T17:12:39;10.70;99.90
40758;DHT22;26462;47.384;19.218;2024-02-04T17:15:13;10.60;99.90
40758;DHT22;26462;47.384;19.218;2024-02-04T17:17:50;10.50;99.90
40758;DHT22;26462;47.384;19.218;2024-02-04T17:20:30;10.60;99.90
40758;DHT22;26462;47.384;19.218;2024-02-04T17:23:08;10.50;99.90
40758;DHT22;26462;47.384;19.218;2024-02-04T17:25:40;10.50;99.90
40758;DHT22;26462;47.384;19.218;2024-02-04T17:28:12;10.50;99.90
40758;DHT22;26462;47.384;19.218;2024-02-04T17:30:48;10.50;99.90
40758;DHT22;26462;47.384;19.218;2024-02-04T17:33:21;10.50;99.90
40758;DHT22;26462;47.384;19.218;2024-02-04T17:35:49;10.50;99.90
40758;DHT22;26462;47.384;19.218;2024-02-04T17:38:22;10.50;99.90